sensor_id;sensor_type;location;lat;lon;timestamp;P1;durP1;ratioP1;P2;durP2;ratioP2
39094;SDS011;24840;47.508;19.376;2022-08-18T00:00:14;5.38;;;4.50;;
39094;SDS011;24840;47.508;19.376;2022-08-18T00:02:41;6.18;;;4.40;;
39094;SDS011;24840;47.508;19.376;2022-08-18T00:05:08;9.13;;;5.68;;
39094;SDS011;24840;47.508;19.376;2022-08-18T00:07:37;10.80;;;5.22;;
39094;SDS011;24840;47.508;19.376;2022-08-18T00:10:04;9.00;;;5.28;;
39094;SDS011;24840;47.508;19.376;2022-08-18T00:12:34;5.53;;;5.00;;
39094;SDS011;24840;47.508;19.376;2022-08-18T00:17:31;5.38;;;4.50;;
39094;SDS011;24840;47.508;19.376;2022-08-18T00:19:58;6.07;;;4.93;;
39094;SDS011;24840;47.508;19.376;2022-08-18T00:22:24;5.30;;;4.80;;
39094;SDS011;24840;47.508;19.376;2022-08-18T00:24:51;5.82;;;5.07;;
39094;SDS011;24840;47.508;19.376;2022-08-18T00:27:20;4.68;;;4.28;;
39094;SDS011;24840;47.508;19.376;2022-08-18T00:29:49;7.70;;;5.55;;
39094;SDS011;24840;47.508;19.376;2022-08-18T00:32:19;7.38;;;4.65;;
39094;SDS011;24840;47.508;19.376;2022-08-18T00:34:48;8.75;;;4.57;;
39094;SDS011;24840;47.508;19.376;2022-08-18T00:37:14;5.22;;;4.72;;
39094;SDS011;24840;47.508;19.376;2022-08-18T00:39:39;5.97;;;5.07;;
39094;SDS011;24840;47.508;19.376;2022-08-18T00:42:22;6.45;;;5.18;;
39094;SDS011;24840;47.508;19.376;2022-08-18T00:44:50;7.50;;;5.75;;
39094;SDS011;24840;47.508;19.376;2022-08-18T00:47:17;5.65;;;5.15;;
39094;SDS011;24840;47.508;19.376;2022-08-18T00:49:43;9.13;;;5.85;;
39094;SDS011;24840;47.508;19.376;2022-08-18T00:52:11;6.50;;;4.95;;
39094;SDS011;24840;47.508;19.376;2022-08-18T00:54:40;5.75;;;5.15;;
39094;SDS011;24840;47.508;19.376;2022-08-18T00:57:09;7.72;;;6.30;;
39094;SDS011;24840;47.508;19.376;2022-08-18T00:59:43;7.38;;;5.95;;
39094;SDS011;24840;47.508;19.376;2022-08-18T01:02:18;8.13;;;6.15;;
39094;SDS011;24840;47.508;19.376;2022-08-18T01:08:14;10.32;;;5.60;;
39094;SDS011;24840;47.508;19.376;2022-08-18T01:10:42;5.85;;;4.90;;
39094;SDS011;24840;47.508;19.376;2022-08-18T01:13:09;6.60;;;5.88;;
39094;SDS011;24840;47.508;19.376;2022-08-18T01:15:35;9.45;;;5.63;;
39094;SDS011;24840;47.508;19.376;2022-08-18T01:18:03;6.60;;;5.88;;
39094;SDS011;24840;47.508;19.376;2022-08-18T01:24:03;10.35;;;7.15;;
39094;SDS011;24840;47.508;19.376;2022-08-18T01:26:34;6.45;;;5.55;;
39094;SDS011;24840;47.508;19.376;2022-08-18T01:29:03;10.20;;;6.03;;
39094;SDS011;24840;47.508;19.376;2022-08-18T01:31:34;7.68;;;6.20;;
39094;SDS011;24840;47.508;19.376;2022-08-18T01:34:04;8.98;;;6.68;;
39094;SDS011;24840;47.508;19.376;2022-08-18T01:36:32;7.07;;;5.45;;
39094;SDS011;24840;47.508;19.376;2022-08-18T01:39:02;9.48;;;7.07;;
39094;SDS011;24840;47.508;19.376;2022-08-18T01:41:29;9.77;;;6.22;;
39094;SDS011;24840;47.508;19.376;2022-08-18T01:43:56;8.20;;;6.72;;
39094;SDS011;24840;47.508;19.376;2022-08-18T01:46:23;9.27;;;6.80;;
39094;SDS011;24840;47.508;19.376;2022-08-18T01:48:50;9.65;;;7.05;;
39094;SDS011;24840;47.508;19.376;2022-08-18T01:51:17;6.75;;;5.95;;
39094;SDS011;24840;47.508;19.376;2022-08-18T01:53:45;8.10;;;6.20;;
39094;SDS011;24840;47.508;19.376;2022-08-18T01:56:12;6.95;;;6.30;;
39094;SDS011;24840;47.508;19.376;2022-08-18T01:58:42;8.82;;;7.43;;
39094;SDS011;24840;47.508;19.376;2022-08-18T02:01:08;8.75;;;6.65;;
39094;SDS011;24840;47.508;19.376;2022-08-18T02:03:37;8.63;;;7.25;;
39094;SDS011;24840;47.508;19.376;2022-08-18T02:06:11;8.50;;;7.22;;
39094;SDS011;24840;47.508;19.376;2022-08-18T02:08:39;8.25;;;6.70;;
39094;SDS011;24840;47.508;19.376;2022-08-18T02:11:05;9.38;;;7.25;;
39094;SDS011;24840;47.508;19.376;2022-08-18T02:13:32;7.55;;;6.75;;
39094;SDS011;24840;47.508;19.376;2022-08-18T02:15:59;7.53;;;6.80;;
39094;SDS011;24840;47.508;19.376;2022-08-18T02:18:27;7.47;;;6.30;;
39094;SDS011;24840;47.508;19.376;2022-08-18T02:20:55;7.07;;;6.38;;
39094;SDS011;24840;47.508;19.376;2022-08-18T02:23:22;8.55;;;7.75;;
39094;SDS011;24840;47.508;19.376;2022-08-18T02:25:49;10.65;;;8.73;;
39094;SDS011;24840;47.508;19.376;2022-08-18T02:28:15;7.75;;;7.05;;
39094;SDS011;24840;47.508;19.376;2022-08-18T02:30:41;8.70;;;7.82;;
39094;SDS011;24840;47.508;19.376;2022-08-18T02:33:08;11.25;;;7.50;;
39094;SDS011;24840;47.508;19.376;2022-08-18T02:35:35;11.05;;;8.45;;
39094;SDS011;24840;47.508;19.376;2022-08-18T02:38:04;8.85;;;7.72;;
39094;SDS011;24840;47.508;19.376;2022-08-18T02:40:33;9.65;;;7.35;;
39094;SDS011;24840;47.508;19.376;2022-08-18T02:43:06;16.05;;;8.48;;
39094;SDS011;24840;47.508;19.376;2022-08-18T02:45:35;10.00;;;7.78;;
39094;SDS011;24840;47.508;19.376;2022-08-18T02:48:01;9.43;;;8.48;;
39094;SDS011;24840;47.508;19.376;2022-08-18T02:50:28;9.38;;;8.48;;
39094;SDS011;24840;47.508;19.376;2022-08-18T02:52:54;10.30;;;8.55;;
39094;SDS011;24840;47.508;19.376;2022-08-18T02:55:20;8.07;;;7.22;;
39094;SDS011;24840;47.508;19.376;2022-08-18T02:57:47;11.60;;;7.85;;
39094;SDS011;24840;47.508;19.376;2022-08-18T03:00:14;10.77;;;8.15;;
39094;SDS011;24840;47.508;19.376;2022-08-18T03:02:47;11.35;;;7.93;;
39094;SDS011;24840;47.508;19.376;2022-08-18T03:05:15;9.50;;;8.15;;
39094;SDS011;24840;47.508;19.376;2022-08-18T03:07:42;9.50;;;8.52;;
39094;SDS011;24840;47.508;19.376;2022-08-18T03:10:09;11.93;;;10.10;;
39094;SDS011;24840;47.508;19.376;2022-08-18T03:12:36;8.63;;;7.72;;
39094;SDS011;24840;47.508;19.376;2022-08-18T03:15:02;8.68;;;7.88;;
39094;SDS011;24840;47.508;19.376;2022-08-18T03:17:29;9.88;;;8.98;;
39094;SDS011;24840;47.508;19.376;2022-08-18T03:19:55;9.90;;;8.90;;
39094;SDS011;24840;47.508;19.376;2022-08-18T03:22:21;14.05;;;9.90;;
39094;SDS011;24840;47.508;19.376;2022-08-18T03:24:49;10.05;;;9.05;;
39094;SDS011;24840;47.508;19.376;2022-08-18T03:27:15;10.73;;;9.50;;
39094;SDS011;24840;47.508;19.376;2022-08-18T03:29:41;9.45;;;8.45;;
39094;SDS011;24840;47.508;19.376;2022-08-18T03:32:07;12.18;;;9.50;;
39094;SDS011;24840;47.508;19.376;2022-08-18T03:34:33;11.82;;;9.93;;
39094;SDS011;24840;47.508;19.376;2022-08-18T03:36:59;11.70;;;10.38;;
39094;SDS011;24840;47.508;19.376;2022-08-18T03:39:26;10.52;;;9.52;;
39094;SDS011;24840;47.508;19.376;2022-08-18T03:41:53;11.40;;;9.40;;
39094;SDS011;24840;47.508;19.376;2022-08-18T03:44:20;10.25;;;8.90;;
39094;SDS011;24840;47.508;19.376;2022-08-18T03:46:47;11.85;;;10.00;;
39094;SDS011;24840;47.508;19.376;2022-08-18T03:49:16;9.82;;;8.82;;
39094;SDS011;24840;47.508;19.376;2022-08-18T03:51:44;9.55;;;8.65;;
39094;SDS011;24840;47.508;19.376;2022-08-18T03:54:13;11.35;;;10.13;;
39094;SDS011;24840;47.508;19.376;2022-08-18T03:56:45;10.75;;;9.55;;
39094;SDS011;24840;47.508;19.376;2022-08-18T03:59:21;10.50;;;9.45;;
39094;SDS011;24840;47.508;19.376;2022-08-18T04:02:01;13.02;;;11.48;;
39094;SDS011;24840;47.508;19.376;2022-08-18T04:04:35;12.43;;;11.25;;
39094;SDS011;24840;47.508;19.376;2022-08-18T04:07:08;12.07;;;10.88;;
39094;SDS011;24840;47.508;19.376;2022-08-18T04:09:37;10.75;;;9.70;;
39094;SDS011;24840;47.508;19.376;2022-08-18T04:12:14;13.80;;;11.13;;
39094;SDS011;24840;47.508;19.376;2022-08-18T04:14:43;11.57;;;10.48;;
39094;SDS011;24840;47.508;19.376;2022-08-18T04:17:12;12.32;;;11.02;;
39094;SDS011;24840;47.508;19.376;2022-08-18T04:19:38;11.57;;;9.55;;
39094;SDS011;24840;47.508;19.376;2022-08-18T04:22:04;11.55;;;10.43;;
39094;SDS011;24840;47.508;19.376;2022-08-18T04:24:31;13.60;;;11.38;;
39094;SDS011;24840;47.508;19.376;2022-08-18T04:26:59;11.63;;;10.52;;
39094;SDS011;24840;47.508;19.376;2022-08-18T04:29:26;16.55;;;11.75;;
39094;SDS011;24840;47.508;19.376;2022-08-18T04:31:53;13.15;;;11.68;;
39094;SDS011;24840;47.508;19.376;2022-08-18T04:34:20;12.75;;;11.43;;
39094;SDS011;24840;47.508;19.376;2022-08-18T04:36:47;11.48;;;10.35;;
39094;SDS011;24840;47.508;19.376;2022-08-18T04:39:18;13.00;;;11.75;;
39094;SDS011;24840;47.508;19.376;2022-08-18T04:41:45;13.15;;;10.35;;
39094;SDS011;24840;47.508;19.376;2022-08-18T04:44:12;15.60;;;11.57;;
39094;SDS011;24840;47.508;19.376;2022-08-18T04:46:43;11.32;;;10.05;;
39094;SDS011;24840;47.508;19.376;2022-08-18T04:49:13;12.07;;;10.77;;
39094;SDS011;24840;47.508;19.376;2022-08-18T04:51:42;17.02;;;12.88;;
39094;SDS011;24840;47.508;19.376;2022-08-18T04:54:31;12.80;;;11.52;;
39094;SDS011;24840;47.508;19.376;2022-08-18T04:57:10;14.85;;;11.60;;
39094;SDS011;24840;47.508;19.376;2022-08-18T04:59:39;15.73;;;11.02;;
39094;SDS011;24840;47.508;19.376;2022-08-18T05:02:08;14.98;;;12.88;;
39094;SDS011;24840;47.508;19.376;2022-08-18T05:04:38;20.45;;;10.63;;
39094;SDS011;24840;47.508;19.376;2022-08-18T05:07:06;13.00;;;11.55;;
39094;SDS011;24840;47.508;19.376;2022-08-18T05:09:37;12.35;;;11.15;;
39094;SDS011;24840;47.508;19.376;2022-08-18T05:12:07;12.15;;;10.80;;
39094;SDS011;24840;47.508;19.376;2022-08-18T05:14:36;15.57;;;12.70;;
39094;SDS011;24840;47.508;19.376;2022-08-18T05:17:03;15.52;;;13.07;;
39094;SDS011;24840;47.508;19.376;2022-08-18T05:19:30;13.98;;;12.52;;
39094;SDS011;24840;47.508;19.376;2022-08-18T05:21:57;15.70;;;13.90;;
39094;SDS011;24840;47.508;19.376;2022-08-18T05:24:23;19.92;;;14.25;;
39094;SDS011;24840;47.508;19.376;2022-08-18T05:26:51;21.40;;;12.80;;
39094;SDS011;24840;47.508;19.376;2022-08-18T05:29:18;14.85;;;13.25;;
39094;SDS011;24840;47.508;19.376;2022-08-18T05:32:04;13.90;;;12.55;;
39094;SDS011;24840;47.508;19.376;2022-08-18T05:34:32;17.80;;;13.50;;
39094;SDS011;24840;47.508;19.376;2022-08-18T05:39:37;12.57;;;11.30;;
39094;SDS011;24840;47.508;19.376;2022-08-18T05:42:14;13.15;;;11.85;;
39094;SDS011;24840;47.508;19.376;2022-08-18T05:44:45;11.93;;;10.82;;
39094;SDS011;24840;47.508;19.376;2022-08-18T05:47:23;15.35;;;11.25;;
39094;SDS011;24840;47.508;19.376;2022-08-18T05:49:57;12.18;;;10.98;;
39094;SDS011;24840;47.508;19.376;2022-08-18T05:52:34;10.48;;;9.38;;
39094;SDS011;24840;47.508;19.376;2022-08-18T05:55:23;10.15;;;9.18;;
39094;SDS011;24840;47.508;19.376;2022-08-18T05:58:12;12.10;;;10.63;;
39094;SDS011;24840;47.508;19.376;2022-08-18T06:00:44;10.82;;;9.60;;
39094;SDS011;24840;47.508;19.376;2022-08-18T06:03:20;11.10;;;10.10;;
39094;SDS011;24840;47.508;19.376;2022-08-18T06:08:28;12.45;;;9.52;;
39094;SDS011;24840;47.508;19.376;2022-08-18T06:11:07;10.77;;;9.80;;
39094;SDS011;24840;47.508;19.376;2022-08-18T06:13:40;10.55;;;9.57;;
39094;SDS011;24840;47.508;19.376;2022-08-18T06:16:13;10.32;;;9.40;;
39094;SDS011;24840;47.508;19.376;2022-08-18T06:27:21;10.43;;;9.15;;
39094;SDS011;24840;47.508;19.376;2022-08-18T06:32:47;11.65;;;8.35;;
39094;SDS011;24840;47.508;19.376;2022-08-18T06:35:35;13.50;;;9.18;;
39094;SDS011;24840;47.508;19.376;2022-08-18T06:41:15;10.77;;;9.77;;
39094;SDS011;24840;47.508;19.376;2022-08-18T06:43:57;10.50;;;8.32;;
39094;SDS011;24840;47.508;19.376;2022-08-18T06:46:28;10.63;;;8.38;;
39094;SDS011;24840;47.508;19.376;2022-08-18T06:49:05;14.48;;;8.57;;
39094;SDS011;24840;47.508;19.376;2022-08-18T06:51:55;10.10;;;9.05;;
39094;SDS011;24840;47.508;19.376;2022-08-18T06:56:48;11.73;;;9.40;;
39094;SDS011;24840;47.508;19.376;2022-08-18T07:01:55;9.32;;;8.43;;
39094;SDS011;24840;47.508;19.376;2022-08-18T07:04:35;19.77;;;16.35;;
39094;SDS011;24840;47.508;19.376;2022-08-18T07:10:06;9.18;;;8.30;;
39094;SDS011;24840;47.508;19.376;2022-08-18T07:12:38;14.30;;;9.82;;
39094;SDS011;24840;47.508;19.376;2022-08-18T07:15:05;13.07;;;8.25;;
39094;SDS011;24840;47.508;19.376;2022-08-18T07:17:32;9.00;;;8.20;;
39094;SDS011;24840;47.508;19.376;2022-08-18T07:22:53;23.40;;;17.13;;
39094;SDS011;24840;47.508;19.376;2022-08-18T07:25:29;10.35;;;8.43;;
39094;SDS011;24840;47.508;19.376;2022-08-18T07:27:57;8.60;;;7.80;;
39094;SDS011;24840;47.508;19.376;2022-08-18T07:30:33;9.98;;;8.02;;
39094;SDS011;24840;47.508;19.376;2022-08-18T07:33:05;9.93;;;9.02;;
39094;SDS011;24840;47.508;19.376;2022-08-18T07:35:39;11.65;;;8.88;;
39094;SDS011;24840;47.508;19.376;2022-08-18T07:38:25;11.45;;;8.85;;
39094;SDS011;24840;47.508;19.376;2022-08-18T07:46:23;9.98;;;8.35;;
39094;SDS011;24840;47.508;19.376;2022-08-18T07:48:56;8.65;;;7.65;;
39094;SDS011;24840;47.508;19.376;2022-08-18T07:51:26;10.38;;;7.70;;
39094;SDS011;24840;47.508;19.376;2022-08-18T07:54:01;8.80;;;8.00;;
39094;SDS011;24840;47.508;19.376;2022-08-18T07:56:50;8.75;;;7.95;;
39094;SDS011;24840;47.508;19.376;2022-08-18T07:59:51;12.27;;;8.02;;
39094;SDS011;24840;47.508;19.376;2022-08-18T08:02:27;11.38;;;8.00;;
39094;SDS011;24840;47.508;19.376;2022-08-18T08:07:55;7.90;;;7.15;;
39094;SDS011;24840;47.508;19.376;2022-08-18T08:10:28;9.15;;;8.25;;
39094;SDS011;24840;47.508;19.376;2022-08-18T08:15:34;9.10;;;7.90;;
39094;SDS011;24840;47.508;19.376;2022-08-18T08:18:32;13.45;;;8.00;;
39094;SDS011;24840;47.508;19.376;2022-08-18T08:21:19;10.02;;;7.68;;
39094;SDS011;24840;47.508;19.376;2022-08-18T08:23:50;8.88;;;7.97;;
39094;SDS011;24840;47.508;19.376;2022-08-18T08:26:34;8.35;;;7.45;;
39094;SDS011;24840;47.508;19.376;2022-08-18T08:31:47;10.57;;;7.28;;
39094;SDS011;24840;47.508;19.376;2022-08-18T08:36:44;9.35;;;8.45;;
39094;SDS011;24840;47.508;19.376;2022-08-18T08:42:07;8.38;;;7.57;;
39094;SDS011;24840;47.508;19.376;2022-08-18T08:44:54;8.15;;;7.45;;
39094;SDS011;24840;47.508;19.376;2022-08-18T08:47:35;10.02;;;8.02;;
39094;SDS011;24840;47.508;19.376;2022-08-18T08:50:06;7.93;;;7.25;;
39094;SDS011;24840;47.508;19.376;2022-08-18T08:52:43;10.40;;;7.93;;
39094;SDS011;24840;47.508;19.376;2022-08-18T08:55:21;7.97;;;7.35;;
39094;SDS011;24840;47.508;19.376;2022-08-18T08:58:02;8.95;;;7.47;;
39094;SDS011;24840;47.508;19.376;2022-08-18T09:00:52;10.63;;;7.53;;
39094;SDS011;24840;47.508;19.376;2022-08-18T09:08:37;8.38;;;7.28;;
39094;SDS011;24840;47.508;19.376;2022-08-18T09:14:24;9.00;;;7.40;;
39094;SDS011;24840;47.508;19.376;2022-08-18T09:17:27;7.80;;;7.00;;
39094;SDS011;24840;47.508;19.376;2022-08-18T09:22:53;9.88;;;7.38;;
39094;SDS011;24840;47.508;19.376;2022-08-18T09:38:52;10.20;;;7.15;;
39094;SDS011;24840;47.508;19.376;2022-08-18T09:41:46;8.93;;;7.45;;
39094;SDS011;24840;47.508;19.376;2022-08-18T09:49:51;8.15;;;6.57;;
39094;SDS011;24840;47.508;19.376;2022-08-18T09:54:53;13.57;;;7.85;;
39094;SDS011;24840;47.508;19.376;2022-08-18T09:57:30;6.75;;;6.15;;
39094;SDS011;24840;47.508;19.376;2022-08-18T10:13:21;8.95;;;6.85;;
39094;SDS011;24840;47.508;19.376;2022-08-18T10:21:27;11.70;;;6.60;;
39094;SDS011;24840;47.508;19.376;2022-08-18T10:24:18;10.55;;;6.72;;
39094;SDS011;24840;47.508;19.376;2022-08-18T10:37:22;6.72;;;6.13;;
39094;SDS011;24840;47.508;19.376;2022-08-18T10:39:59;6.65;;;6.15;;
39094;SDS011;24840;47.508;19.376;2022-08-18T10:42:47;7.55;;;6.70;;
39094;SDS011;24840;47.508;19.376;2022-08-18T10:45:35;6.88;;;6.38;;
39094;SDS011;24840;47.508;19.376;2022-08-18T10:53:25;5.93;;;5.43;;
39094;SDS011;24840;47.508;19.376;2022-08-18T10:56:02;7.05;;;6.28;;
39094;SDS011;24840;47.508;19.376;2022-08-18T10:58:43;8.73;;;6.07;;
39094;SDS011;24840;47.508;19.376;2022-08-18T11:01:34;7.07;;;6.30;;
39094;SDS011;24840;47.508;19.376;2022-08-18T11:04:29;7.03;;;6.38;;
39094;SDS011;24840;47.508;19.376;2022-08-18T11:09:34;5.97;;;5.43;;
39094;SDS011;24840;47.508;19.376;2022-08-18T11:12:02;7.65;;;5.45;;
39094;SDS011;24840;47.508;19.376;2022-08-18T11:17:23;5.45;;;5.05;;
39094;SDS011;24840;47.508;19.376;2022-08-18T11:20:20;6.65;;;5.57;;
39094;SDS011;24840;47.508;19.376;2022-08-18T11:22:52;5.55;;;5.13;;
39094;SDS011;24840;47.508;19.376;2022-08-18T11:25:26;5.57;;;5.03;;
39094;SDS011;24840;47.508;19.376;2022-08-18T11:27:52;6.25;;;5.57;;
39094;SDS011;24840;47.508;19.376;2022-08-18T11:30:20;6.43;;;5.72;;
39094;SDS011;24840;47.508;19.376;2022-08-18T11:32:47;7.18;;;6.28;;
39094;SDS011;24840;47.508;19.376;2022-08-18T11:35:16;6.70;;;5.50;;
39094;SDS011;24840;47.508;19.376;2022-08-18T11:45:59;5.40;;;5.05;;
39094;SDS011;24840;47.508;19.376;2022-08-18T11:48:32;6.47;;;5.05;;
39094;SDS011;24840;47.508;19.376;2022-08-18T11:51:24;5.50;;;5.05;;
39094;SDS011;24840;47.508;19.376;2022-08-18T11:53:52;6.32;;;5.90;;
39094;SDS011;24840;47.508;19.376;2022-08-18T11:58:56;7.40;;;6.63;;
39094;SDS011;24840;47.508;19.376;2022-08-18T12:06:39;6.25;;;5.65;;
39094;SDS011;24840;47.508;19.376;2022-08-18T12:09:21;6.47;;;5.90;;
39094;SDS011;24840;47.508;19.376;2022-08-18T12:11:49;6.57;;;6.00;;
39094;SDS011;24840;47.508;19.376;2022-08-18T12:14:26;6.55;;;6.05;;
39094;SDS011;24840;47.508;19.376;2022-08-18T12:16:55;6.82;;;6.10;;
39094;SDS011;24840;47.508;19.376;2022-08-18T12:19:21;5.95;;;5.55;;
39094;SDS011;24840;47.508;19.376;2022-08-18T12:21:53;6.85;;;6.25;;
39094;SDS011;24840;47.508;19.376;2022-08-18T12:24:28;5.97;;;5.57;;
39094;SDS011;24840;47.508;19.376;2022-08-18T12:26:56;6.47;;;5.97;;
39094;SDS011;24840;47.508;19.376;2022-08-18T12:29:24;6.13;;;5.53;;
39094;SDS011;24840;47.508;19.376;2022-08-18T12:31:51;6.15;;;5.57;;
39094;SDS011;24840;47.508;19.376;2022-08-18T12:34:20;5.50;;;5.18;;
39094;SDS011;24840;47.508;19.376;2022-08-18T12:36:56;6.13;;;5.53;;
39094;SDS011;24840;47.508;19.376;2022-08-18T12:39:25;6.60;;;6.15;;
39094;SDS011;24840;47.508;19.376;2022-08-18T12:41:52;6.55;;;6.05;;
39094;SDS011;24840;47.508;19.376;2022-08-18T12:44:19;6.32;;;5.82;;
39094;SDS011;24840;47.508;19.376;2022-08-18T12:46:45;12.00;;;5.57;;
39094;SDS011;24840;47.508;19.376;2022-08-18T12:49:16;7.10;;;5.65;;
39094;SDS011;24840;47.508;19.376;2022-08-18T12:51:43;7.15;;;6.57;;
39094;SDS011;24840;47.508;19.376;2022-08-18T12:54:10;6.80;;;6.30;;
39094;SDS011;24840;47.508;19.376;2022-08-18T12:56:37;7.30;;;5.43;;
39094;SDS011;24840;47.508;19.376;2022-08-18T12:59:06;8.57;;;6.75;;
39094;SDS011;24840;47.508;19.376;2022-08-18T13:01:37;7.20;;;6.45;;
39094;SDS011;24840;47.508;19.376;2022-08-18T13:04:04;6.55;;;5.45;;
39094;SDS011;24840;47.508;19.376;2022-08-18T13:06:35;6.13;;;5.53;;
39094;SDS011;24840;47.508;19.376;2022-08-18T13:09:05;5.95;;;5.55;;
39094;SDS011;24840;47.508;19.376;2022-08-18T13:11:31;5.63;;;5.22;;
39094;SDS011;24840;47.508;19.376;2022-08-18T13:13:57;6.15;;;5.55;;
39094;SDS011;24840;47.508;19.376;2022-08-18T13:16:24;6.40;;;5.95;;
39094;SDS011;24840;47.508;19.376;2022-08-18T13:18:51;6.60;;;6.10;;
39094;SDS011;24840;47.508;19.376;2022-08-18T13:21:17;7.78;;;7.10;;
39094;SDS011;24840;47.508;19.376;2022-08-18T13:23:43;5.45;;;5.05;;
39094;SDS011;24840;47.508;19.376;2022-08-18T13:26:12;6.55;;;5.97;;
39094;SDS011;24840;47.508;19.376;2022-08-18T13:28:45;6.55;;;6.03;;
39094;SDS011;24840;47.508;19.376;2022-08-18T13:31:12;6.65;;;5.75;;
39094;SDS011;24840;47.508;19.376;2022-08-18T13:33:38;6.63;;;6.00;;
39094;SDS011;24840;47.508;19.376;2022-08-18T13:36:06;6.15;;;5.60;;
39094;SDS011;24840;47.508;19.376;2022-08-18T13:38:32;5.57;;;5.07;;
39094;SDS011;24840;47.508;19.376;2022-08-18T13:40:59;6.88;;;6.22;;
39094;SDS011;24840;47.508;19.376;2022-08-18T13:43:42;9.60;;;6.53;;
39094;SDS011;24840;47.508;19.376;2022-08-18T13:46:12;5.30;;;4.90;;
39094;SDS011;24840;47.508;19.376;2022-08-18T13:48:40;6.93;;;6.32;;
39094;SDS011;24840;47.508;19.376;2022-08-18T13:51:08;6.30;;;5.70;;
39094;SDS011;24840;47.508;19.376;2022-08-18T13:53:36;5.78;;;5.13;;
39094;SDS011;24840;47.508;19.376;2022-08-18T13:56:03;8.95;;;6.13;;
39094;SDS011;24840;47.508;19.376;2022-08-18T13:58:30;6.38;;;5.70;;
39094;SDS011;24840;47.508;19.376;2022-08-18T14:01:00;6.35;;;5.85;;
39094;SDS011;24840;47.508;19.376;2022-08-18T14:03:29;6.20;;;5.70;;
39094;SDS011;24840;47.508;19.376;2022-08-18T14:05:56;6.30;;;5.85;;
39094;SDS011;24840;47.508;19.376;2022-08-18T14:08:24;6.28;;;5.78;;
39094;SDS011;24840;47.508;19.376;2022-08-18T14:10:55;6.10;;;5.70;;
39094;SDS011;24840;47.508;19.376;2022-08-18T14:13:23;7.20;;;6.40;;
39094;SDS011;24840;47.508;19.376;2022-08-18T14:15:49;7.90;;;5.55;;
39094;SDS011;24840;47.508;19.376;2022-08-18T14:18:17;6.82;;;6.05;;
39094;SDS011;24840;47.508;19.376;2022-08-18T14:20:42;6.65;;;6.15;;
39094;SDS011;24840;47.508;19.376;2022-08-18T14:23:27;6.95;;;6.35;;
39094;SDS011;24840;47.508;19.376;2022-08-18T14:26:11;8.10;;;5.95;;
39094;SDS011;24840;47.508;19.376;2022-08-18T14:28:55;8.50;;;7.90;;
39094;SDS011;24840;47.508;19.376;2022-08-18T14:31:21;10.13;;;9.18;;
39094;SDS011;24840;47.508;19.376;2022-08-18T14:33:47;10.07;;;9.18;;
39094;SDS011;24840;47.508;19.376;2022-08-18T14:36:14;9.40;;;8.70;;
39094;SDS011;24840;47.508;19.376;2022-08-18T14:38:40;8.43;;;7.75;;
39094;SDS011;24840;47.508;19.376;2022-08-18T14:41:07;7.97;;;7.40;;
39094;SDS011;24840;47.508;19.376;2022-08-18T14:43:36;8.98;;;7.90;;
39094;SDS011;24840;47.508;19.376;2022-08-18T14:46:02;8.98;;;8.27;;
39094;SDS011;24840;47.508;19.376;2022-08-18T14:48:29;10.27;;;9.15;;
39094;SDS011;24840;47.508;19.376;2022-08-18T14:50:56;8.85;;;8.02;;
39094;SDS011;24840;47.508;19.376;2022-08-18T14:53:27;8.50;;;7.80;;
39094;SDS011;24840;47.508;19.376;2022-08-18T14:55:55;9.98;;;8.98;;
39094;SDS011;24840;47.508;19.376;2022-08-18T14:58:22;15.68;;;9.35;;
39094;SDS011;24840;47.508;19.376;2022-08-18T15:00:53;12.68;;;11.45;;
39094;SDS011;24840;47.508;19.376;2022-08-18T15:03:20;11.88;;;10.88;;
39094;SDS011;24840;47.508;19.376;2022-08-18T15:05:47;11.80;;;10.88;;
39094;SDS011;24840;47.508;19.376;2022-08-18T15:08:13;12.35;;;11.25;;
39094;SDS011;24840;47.508;19.376;2022-08-18T15:10:40;12.57;;;11.38;;
39094;SDS011;24840;47.508;19.376;2022-08-18T15:13:06;11.98;;;10.88;;
39094;SDS011;24840;47.508;19.376;2022-08-18T15:15:33;12.23;;;11.02;;
39094;SDS011;24840;47.508;19.376;2022-08-18T15:17:59;12.70;;;11.60;;
39094;SDS011;24840;47.508;19.376;2022-08-18T15:20:25;12.25;;;11.25;;
39094;SDS011;24840;47.508;19.376;2022-08-18T15:22:52;12.88;;;11.68;;
39094;SDS011;24840;47.508;19.376;2022-08-18T15:25:36;13.57;;;11.95;;
39094;SDS011;24840;47.508;19.376;2022-08-18T15:28:13;13.38;;;12.27;;
39094;SDS011;24840;47.508;19.376;2022-08-18T15:30:44;13.50;;;12.18;;
39094;SDS011;24840;47.508;19.376;2022-08-18T15:33:12;15.25;;;12.80;;
39094;SDS011;24840;47.508;19.376;2022-08-18T15:35:40;14.68;;;13.38;;
39094;SDS011;24840;47.508;19.376;2022-08-18T15:38:08;18.02;;;12.70;;
39094;SDS011;24840;47.508;19.376;2022-08-18T15:40:37;18.58;;;15.40;;
39094;SDS011;24840;47.508;19.376;2022-08-18T15:43:11;16.00;;;14.52;;
39094;SDS011;24840;47.508;19.376;2022-08-18T15:45:39;15.85;;;13.48;;
39094;SDS011;24840;47.508;19.376;2022-08-18T15:48:08;15.25;;;13.95;;
39094;SDS011;24840;47.508;19.376;2022-08-18T15:50:34;17.20;;;14.77;;
39094;SDS011;24840;47.508;19.376;2022-08-18T15:53:01;14.07;;;12.68;;
39094;SDS011;24840;47.508;19.376;2022-08-18T15:55:30;14.82;;;13.43;;
39094;SDS011;24840;47.508;19.376;2022-08-18T15:57:59;16.65;;;14.88;;
39094;SDS011;24840;47.508;19.376;2022-08-18T16:00:27;14.52;;;13.23;;
39094;SDS011;24840;47.508;19.376;2022-08-18T16:02:55;14.90;;;13.57;;
39094;SDS011;24840;47.508;19.376;2022-08-18T16:05:26;14.55;;;13.25;;
39094;SDS011;24840;47.508;19.376;2022-08-18T16:07:55;15.43;;;13.93;;
39094;SDS011;24840;47.508;19.376;2022-08-18T16:10:24;13.32;;;12.13;;
39094;SDS011;24840;47.508;19.376;2022-08-18T16:12:51;12.43;;;11.30;;
39094;SDS011;24840;47.508;19.376;2022-08-18T16:15:18;12.60;;;11.52;;
39094;SDS011;24840;47.508;19.376;2022-08-18T16:17:47;14.25;;;12.52;;
39094;SDS011;24840;47.508;19.376;2022-08-18T16:20:14;12.73;;;11.55;;
39094;SDS011;24840;47.508;19.376;2022-08-18T16:22:42;12.05;;;10.90;;
39094;SDS011;24840;47.508;19.376;2022-08-18T16:25:09;16.10;;;12.68;;
39094;SDS011;24840;47.508;19.376;2022-08-18T16:27:36;13.98;;;11.57;;
39094;SDS011;24840;47.508;19.376;2022-08-18T16:30:11;21.35;;;14.32;;
39094;SDS011;24840;47.508;19.376;2022-08-18T16:32:39;22.90;;;12.52;;
39094;SDS011;24840;47.508;19.376;2022-08-18T16:35:05;12.60;;;10.18;;
39094;SDS011;24840;47.508;19.376;2022-08-18T16:37:32;12.40;;;10.93;;
39094;SDS011;24840;47.508;19.376;2022-08-18T16:39:58;11.23;;;10.15;;
39094;SDS011;24840;47.508;19.376;2022-08-18T16:42:24;12.38;;;11.27;;
39094;SDS011;24840;47.508;19.376;2022-08-18T16:44:50;15.48;;;12.98;;
39094;SDS011;24840;47.508;19.376;2022-08-18T16:47:16;12.65;;;11.50;;
39094;SDS011;24840;47.508;19.376;2022-08-18T16:49:43;12.75;;;11.63;;
39094;SDS011;24840;47.508;19.376;2022-08-18T16:52:10;13.20;;;11.98;;
39094;SDS011;24840;47.508;19.376;2022-08-18T16:54:37;12.82;;;11.25;;
39094;SDS011;24840;47.508;19.376;2022-08-18T16:57:03;11.90;;;10.75;;
39094;SDS011;24840;47.508;19.376;2022-08-18T16:59:30;12.98;;;11.65;;
39094;SDS011;24840;47.508;19.376;2022-08-18T17:02:14;13.15;;;11.55;;
39094;SDS011;24840;47.508;19.376;2022-08-18T17:05:00;13.10;;;11.48;;
39094;SDS011;24840;47.508;19.376;2022-08-18T17:07:28;11.68;;;10.43;;
39094;SDS011;24840;47.508;19.376;2022-08-18T17:09:58;14.95;;;11.38;;
39094;SDS011;24840;47.508;19.376;2022-08-18T17:12:24;12.00;;;10.93;;